Time;durP1;ratioP1;P1;durP2;ratioP2;P2;SDS_P1;SDS_P2;PMS_P1;PMS_P2;Temp;Humidity;BMP_temperature;BMP_pressure;BME280_temperature;BME280_humidity;BME280_pressure;Samples;Min_cycle;Max_cycle;Signal;HPM_P1;HPM_P2
2020/12/25 00:01:48;;;;;;;7.38;0.73;;;3.40;98.90;;;;;;4882287;29;20039;-76
2020/12/25 00:04:14;;;;;;;14.33;1.10;;;3.30;98.90;;;;;;4868184;29;20052;-76
2020/12/25 00:06:41;;;;;;;13.43;1.20;;;3.30;98.90;;;;;;4890524;29;20056;-76
2020/12/25 00:09:08;;;;;;;9.53;1.50;;;3.30;98.90;;;;;;4849715;29;20059;-76
2020/12/25 00:11:36;;;;;;;14.70;1.80;;;3.20;98.90;;;;;;4871702;29;20503;-76
2020/12/25 00:14:04;;;;;;;8.33;1.10;;;3.20;98.90;;;;;;4883703;29;20041;-76
2020/12/25 00:16:31;;;;;;;7.47;0.80;;;3.20;98.90;;;;;;4893267;29;20083;-77
2020/12/25 00:18:58;;;;;;;6.97;1.00;;;3.10;98.90;;;;;;4867565;29;20036;-76
2020/12/25 00:21:24;;;;;;;8.97;1.13;;;3.10;98.90;;;;;;4892252;29;20127;-76
2020/12/25 00:23:51;;;;;;;8.60;1.00;;;3.10;98.90;;;;;;4849765;29;20041;-76
2020/12/25 00:26:22;;;;;;;7.70;0.80;;;3.00;98.90;;;;;;4892348;29;20052;-76
2020/12/25 00:28:48;;;;;;;9.60;1.10;;;3.00;98.90;;;;;;4890048;29;20507;-77
2020/12/25 00:31:29;;;;;;;7.57;0.80;;;3.00;98.90;;;;;;4859188;29;20040;-75
2020/12/25 00:34:03;;;;;;;7.63;0.90;;;3.00;98.90;;;;;;4879873;29;20045;-76
2020/12/25 00:36:32;;;;;;;13.67;0.90;;;2.90;98.90;;;;;;4891605;29;20044;-75
2020/12/25 00:39:02;;;;;;;9.93;0.90;;;2.90;98.90;;;;;;4887000;29;20060;-76
2020/12/25 00:41:28;;;;;;;12.63;1.80;;;2.90;98.90;;;;;;4866268;29;20389;-76
2020/12/25 00:43:55;;;;;;;13.93;1.83;;;2.80;98.90;;;;;;4883655;29;20913;-76
2020/12/25 00:46:22;;;;;;;11.93;1.47;;;2.80;98.90;;;;;;4865790;29;20044;-76
2020/12/25 00:48:49;;;;;;;13.73;1.43;;;2.80;98.90;;;;;;4850197;29;20055;-76
2020/12/25 00:51:21;;;;;;;9.30;1.33;;;2.80;98.90;;;;;;4868148;29;20490;-76
2020/12/25 00:53:50;;;;;;;9.17;1.07;;;2.80;99.00;;;;;;4875360;29;20036;-76
2020/12/25 00:56:17;;;;;;;8.73;0.90;;;2.80;98.90;;;;;;4857754;29;20052;-77
2020/12/25 00:58:48;;;;;;;13.77;1.40;;;2.80;99.00;;;;;;4851980;29;20045;-76
2020/12/25 01:01:15;;;;;;;7.53;1.03;;;2.70;98.90;;;;;;4867676;29;20098;-76
2020/12/25 01:03:44;;;;;;;9.70;1.10;;;2.70;98.90;;;;;;4868416;29;20047;-76
2020/12/25 01:06:14;;;;;;;10.73;1.10;;;2.70;98.90;;;;;;4881020;29;20052;-76
2020/12/25 01:08:42;;;;;;;8.53;1.10;;;2.70;98.90;;;;;;4880421;29;20066;-76
2020/12/25 01:11:09;;;;;;;8.60;1.00;;;2.60;98.90;;;;;;4878651;29;20052;-76
2020/12/25 01:13:37;;;;;;;6.87;0.70;;;2.60;98.90;;;;;;4877555;29;20056;-76
2020/12/25 01:16:08;;;;;;;13.50;1.97;;;2.60;98.90;;;;;;4864451;29;20044;-76
2020/12/25 01:18:35;;;;;;;9.57;1.40;;;2.60;98.90;;;;;;4874994;29;20453;-76
2020/12/25 01:21:03;;;;;;;7.73;1.13;;;2.60;98.90;;;;;;4864126;29;20078;-76
2020/12/25 01:23:30;;;;;;;11.03;1.10;;;2.60;99.00;;;;;;4884622;29;20047;-76
2020/12/25 01:25:56;;;;;;;7.03;0.87;;;2.50;98.90;;;;;;4887796;29;20053;-77
2020/12/25 01:28:22;;;;;;;5.73;0.83;;;2.50;98.90;;;;;;4874014;29;20052;-76
2020/12/25 01:30:49;;;;;;;9.47;1.00;;;2.50;99.20;;;;;;4883794;29;20084;-76
2020/12/25 01:33:16;;;;;;;9.67;1.00;;;2.50;98.90;;;;;;4883495;29;20048;-76
2020/12/25 01:35:43;;;;;;;12.20;1.23;;;2.50;99.00;;;;;;4888530;29;20048;-76
2020/12/25 01:38:09;;;;;;;8.60;0.90;;;2.50;99.00;;;;;;4837681;29;20464;-76
2020/12/25 01:40:36;;;;;;;8.93;1.00;;;2.50;99.00;;;;;;4848890;29;20045;-76
2020/12/25 01:43:02;;;;;;;19.30;1.20;;;2.40;99.00;;;;;;4883605;29;20040;-76
2020/12/25 01:45:29;;;;;;;12.17;1.07;;;2.40;99.00;;;;;;4892359;29;20060;-76
2020/12/25 01:47:56;;;;;;;13.80;0.80;;;2.40;99.00;;;;;;4881500;29;20048;-76
2020/12/25 01:50:23;;;;;;;14.07;1.07;;;2.40;99.00;;;;;;4863154;29;20060;-76
2020/12/25 01:52:53;;;;;;;8.87;1.00;;;2.50;99.00;;;;;;4889253;29;20037;-76
2020/12/25 01:55:24;;;;;;;15.13;1.20;;;2.40;98.90;;;;;;4867569;29;20040;-76
2020/12/25 01:57:54;;;;;;;7.23;0.80;;;2.40;98.90;;;;;;4888784;29;20028;-76
2020/12/25 02:00:21;;;;;;;11.47;1.10;;;2.40;98.90;;;;;;4898244;29;20040;-76
2020/12/25 02:02:47;;;;;;;13.97;1.17;;;2.40;99.00;;;;;;4858272;29;20045;-76
2020/12/25 02:05:15;;;;;;;13.30;1.60;;;2.40;99.00;;;;;;4866235;29;20043;-76
2020/12/25 02:07:43;;;;;;;10.47;0.90;;;2.40;99.10;;;;;;4871268;29;20060;-76
2020/12/25 02:10:13;;;;;;;13.37;1.17;;;2.40;99.00;;;;;;4873885;29;20075;-76
2020/12/25 02:12:40;;;;;;;12.03;0.80;;;2.40;99.00;;;;;;4856857;29;20060;-76
2020/12/25 02:15:08;;;;;;;10.33;0.93;;;2.40;99.00;;;;;;4853838;29;20060;-76
2020/12/25 02:17:34;;;;;;;10.83;1.10;;;2.40;99.00;;;;;;4892547;29;20040;-76
2020/12/25 02:20:02;;;;;;;9.73;1.27;;;2.40;99.00;;;;;;4899253;29;20436;-75
2020/12/25 02:22:31;;;;;;;5.30;0.73;;;2.40;99.00;;;;;;4870487;29;20043;-76
2020/12/25 02:24:58;;;;;;;12.60;1.00;;;2.40;99.10;;;;;;4873115;29;20040;-76
2020/12/25 02:27:24;;;;;;;8.30;0.90;;;2.40;99.10;;;;;;4883423;29;20060;-76
2020/12/25 02:29:51;;;;;;;8.70;0.90;;;2.40;99.10;;;;;;4849950;29;20039;-76
2020/12/25 02:32:17;;;;;;;5.23;0.50;;;2.40;99.10;;;;;;4895330;29;20060;-76
2020/12/25 02:34:44;;;;;;;13.90;0.87;;;2.40;99.10;;;;;;4868291;29;20064;-76
2020/12/25 02:37:11;;;;;;;8.37;0.87;;;2.40;99.20;;;;;;4896149;29;20044;-76
2020/12/25 02:39:37;;;;;;;8.50;1.10;;;2.50;99.20;;;;;;4876307;29;20049;-76
2020/12/25 02:42:03;;;;;;;13.27;0.60;;;2.50;99.30;;;;;;4878038;29;20039;-76
2020/12/25 02:44:30;;;;;;;6.77;0.60;;;2.60;99.30;;;;;;4859714;29;20060;-75
2020/12/25 02:46:56;;;;;;;9.27;0.80;;;2.70;99.30;;;;;;4897098;29;20071;-76
2020/12/25 02:49:23;;;;;;;4.60;0.50;;;2.70;99.30;;;;;;4862106;29;20455;-76
2020/12/25 02:51:49;;;;;;;8.27;0.77;;;2.70;99.20;;;;;;4861549;29;20056;-76
2020/12/25 02:54:16;;;;;;;12.23;0.93;;;2.70;99.20;;;;;;4893264;29;20570;-76
2020/12/25 02:56:42;;;;;;;7.23;0.60;;;2.70;99.10;;;;;;4864016;29;20040;-75
2020/12/25 02:59:08;;;;;;;6.37;0.60;;;2.60;99.00;;;;;;4866877;29;20036;-75
2020/12/25 03:01:35;;;;;;;10.23;0.77;;;2.60;99.00;;;;;;4878321;29;20040;-76
2020/12/25 03:04:01;;;;;;;13.50;0.80;;;2.50;99.00;;;;;;4851809;29;20044;-76
2020/12/25 03:06:28;;;;;;;11.60;0.90;;;2.50;99.10;;;;;;4847203;29;20048;-76
2020/12/25 03:08:54;;;;;;;10.20;0.80;;;2.50;99.20;;;;;;4869519;29;20060;-76
2020/12/25 03:11:21;;;;;;;7.83;0.90;;;2.50;99.20;;;;;;4867150;29;20060;-76
2020/12/25 03:13:47;;;;;;;8.43;1.03;;;2.50;99.30;;;;;;4876063;29;20051;-76
2020/12/25 03:16:14;;;;;;;9.27;0.60;;;2.50;99.30;;;;;;4834528;29;20048;-76
2020/12/25 03:18:40;;;;;;;4.67;0.40;;;2.50;99.30;;;;;;4881826;29;20044;-76
2020/12/25 03:21:07;;;;;;;5.93;0.67;;;2.50;99.30;;;;;;4818130;29;20059;-76
2020/12/25 03:23:33;;;;;;;9.20;0.70;;;2.60;99.20;;;;;;4880303;29;20508;-76
2020/12/25 03:25:59;;;;;;;10.87;0.77;;;2.60;99.20;;;;;;4894291;29;20052;-76
2020/12/25 03:28:26;;;;;;;15.20;0.90;;;2.60;99.30;;;;;;4903549;29;20048;-76
2020/12/25 03:30:53;;;;;;;7.13;0.80;;;2.60;99.30;;;;;;4885499;29;20072;-76
2020/12/25 03:33:19;;;;;;;3.67;0.40;;;2.60;99.30;;;;;;4900794;29;20060;-76
2020/12/25 03:35:47;;;;;;;5.50;0.90;;;2.70;99.30;;;;;;4896263;29;20067;-76
2020/12/25 03:38:13;;;;;;;5.20;0.50;;;2.70;99.20;;;;;;4881960;29;20055;-76
2020/12/25 03:40:40;;;;;;;6.67;0.73;;;2.70;99.20;;;;;;4901824;29;20055;-76
2020/12/25 03:43:06;;;;;;;6.30;0.70;;;2.70;99.10;;;;;;4868653;29;20397;-76
2020/12/25 03:45:32;;;;;;;9.83;0.97;;;2.70;99.10;;;;;;4864561;29;20085;-76
2020/12/25 03:48:00;;;;;;;3.70;0.40;;;2.70;99.10;;;;;;4881233;29;20055;-76
2020/12/25 03:50:30;;;;;;;7.57;0.80;;;2.70;99.10;;;;;;4869497;29;20482;-76
2020/12/25 03:52:57;;;;;;;5.40;0.60;;;2.70;99.10;;;;;;4867955;29;20040;-76
2020/12/25 03:55:23;;;;;;;6.77;0.50;;;2.70;99.10;;;;;;4878955;29;20066;-76
2020/12/25 03:57:50;;;;;;;5.77;0.40;;;2.60;99.00;;;;;;4901487;29;20036;-76
2020/12/25 04:00:16;;;;;;;3.43;0.60;;;2.60;99.10;;;;;;4896533;29;20045;-76
2020/12/25 04:02:43;;;;;;;8.97;0.50;;;2.60;99.10;;;;;;4895126;29;20048;-76
2020/12/25 04:05:10;;;;;;;4.80;0.40;;;2.60;99.10;;;;;;4854338;29;20481;-76
2020/12/25 04:07:36;;;;;;;4.97;0.50;;;2.60;99.20;;;;;;4896836;29;20064;-76
2020/12/25 04:10:04;;;;;;;2.37;0.40;;;2.70;99.20;;;;;;4848724;29;20581;-76
2020/12/25 04:12:31;;;;;;;4.33;0.20;;;2.70;99.10;;;;;;4878899;29;20044;-76
2020/12/25 04:14:58;;;;;;;5.20;0.30;;;2.60;99.00;;;;;;4850332;29;20059;-76
2020/12/25 04:17:24;;;;;;;3.87;0.50;;;2.60;99.00;;;;;;4865259;29;20060;-76
2020/12/25 04:19:51;;;;;;;0.63;0.20;;;2.60;99.00;;;;;;4910500;29;20040;-76
2020/12/25 04:22:17;;;;;;;4.60;0.30;;;2.50;99.00;;;;;;4891927;29;20049;-82
2020/12/25 04:24:44;;;;;;;2.07;0.30;;;2.50;98.90;;;;;;4893503;29;20041;-82
2020/12/25 04:27:11;;;;;;;2.20;0.33;;;2.50;99.00;;;;;;4879749;29;20481;-82
2020/12/25 04:29:37;;;;;;;2.10;0.33;;;2.40;99.00;;;;;;4859175;29;20053;-81
2020/12/25 04:32:03;;;;;;;1.73;0.20;;;2.40;99.00;;;;;;4857911;29;20044;-82
2020/12/25 04:34:30;;;;;;;4.17;0.40;;;2.40;99.00;;;;;;4895907;29;20044;-82
2020/12/25 04:36:57;;;;;;;4.30;0.40;;;2.40;99.00;;;;;;4889803;29;20399;-82
2020/12/25 04:39:23;;;;;;;2.07;0.20;;;2.30;99.00;;;;;;4870995;29;20036;-82
2020/12/25 04:41:50;;;;;;;3.70;0.30;;;2.30;99.00;;;;;;4877651;29;20048;-82
2020/12/25 04:44:16;;;;;;;2.43;0.30;;;2.30;99.00;;;;;;4880822;29;20037;-81
2020/12/25 04:46:43;;;;;;;4.70;0.30;;;2.30;99.00;;;;;;4870557;29;20048;-82
2020/12/25 04:49:09;;;;;;;3.90;0.30;;;2.30;99.00;;;;;;4856036;29;20066;-81
2020/12/25 04:51:36;;;;;;;3.90;0.47;;;2.30;99.00;;;;;;4871119;29;20037;-81
2020/12/25 04:54:02;;;;;;;1.57;0.30;;;2.30;99.30;;;;;;4869841;29;20044;-82
2020/12/25 04:56:29;;;;;;;3.87;0.87;;;2.30;99.10;;;;;;4873550;29;20384;-81
2020/12/25 04:58:57;;;;;;;1.33;0.27;;;2.40;99.20;;;;;;4902204;29;20049;-82
2020/12/25 05:01:24;;;;;;;2.40;0.20;;;2.50;99.30;;;;;;4872925;29;20075;-82
2020/12/25 05:03:50;;;;;;;2.17;0.20;;;2.50;99.20;;;;;;4882985;29;20059;-81
2020/12/25 05:06:18;;;;;;;1.90;0.20;;;2.60;99.20;;;;;;4871138;29;20047;-82
2020/12/25 05:08:52;;;;;;;4.23;0.30;;;2.60;99.10;;;;;;4886372;29;20052;-82
2020/12/25 05:11:20;;;;;;;1.53;0.20;;;2.60;99.20;;;;;;4899543;29;20052;-82
2020/12/25 05:13:54;;;;;;;0.77;0.20;;;2.60;99.20;;;;;;4855948;29;20044;-82
2020/12/25 05:16:22;;;;;;;2.57;0.10;;;2.70;99.10;;;;;;4875488;29;20049;-82
2020/12/25 05:18:50;;;;;;;1.90;0.20;;;2.70;99.10;;;;;;4857093;29;20044;-82
2020/12/25 05:21:19;;;;;;;2.50;0.20;;;2.60;99.00;;;;;;4881587;29;20048;-82
2020/12/25 05:23:48;;;;;;;3.50;0.20;;;2.60;99.00;;;;;;4893904;29;20039;-82
2020/12/25 05:26:17;;;;;;;2.93;0.20;;;2.60;99.00;;;;;;4865387;29;20044;-82
2020/12/25 05:28:50;;;;;;;2.40;0.30;;;2.60;99.10;;;;;;4875739;29;20052;-82
2020/12/25 05:31:18;;;;;;;3.70;0.27;;;2.60;99.10;;;;;;4903221;29;20048;-82
2020/12/25 05:33:48;;;;;;;4.20;0.93;;;2.60;99.10;;;;;;4872622;29;20049;-82
2020/12/25 05:36:15;;;;;;;2.63;0.23;;;2.60;99.40;;;;;;4886645;29;20817;-82
2020/12/25 05:38:49;;;;;;;2.93;0.30;;;2.70;99.10;;;;;;4903122;29;20051;-82
2020/12/25 05:41:16;;;;;;;1.67;0.40;;;2.70;99.10;;;;;;4888577;29;20039;-82
2020/12/25 05:43:48;;;;;;;5.50;0.40;;;2.70;99.10;;;;;;4887860;29;20061;-82
2020/12/25 05:46:15;;;;;;;1.27;0.17;;;2.70;99.10;;;;;;4870310;29;20052;-82
2020/12/25 05:48:41;;;;;;;3.23;0.50;;;2.70;99.10;;;;;;4891422;29;20043;-82
2020/12/25 05:51:08;;;;;;;2.93;0.30;;;2.70;99.10;;;;;;4853170;29;20053;-82
2020/12/25 05:53:36;;;;;;;3.50;0.23;;;2.80;99.10;;;;;;4888723;29;20051;-81
2020/12/25 05:56:03;;;;;;;2.77;0.20;;;2.80;99.10;;;;;;4881774;29;20373;-82
2020/12/25 05:58:39;;;;;;;4.10;0.30;;;2.80;99.10;;;;;;4879495;29;20047;-82
2020/12/25 06:01:08;;;;;;;7.87;0.40;;;2.80;99.10;;;;;;4878506;29;20037;-82
2020/12/25 06:03:37;;;;;;;5.27;0.40;;;2.70;99.00;;;;;;4889115;29;20048;-82
2020/12/25 06:06:11;;;;;;;1.50;0.27;;;2.70;99.00;;;;;;4908333;29;20047;-82
2020/12/25 06:08:59;;;;;;;4.73;0.30;;;2.70;99.00;;;;;;4905205;29;20053;-82
2020/12/25 06:11:31;;;;;;;3.50;0.30;;;2.70;99.00;;;;;;4874618;29;20060;-82
2020/12/25 06:13:58;;;;;;;;;;;2.70;99.10;;;;;;4888425;29;20045;-82
2020/12/25 06:16:27;;;;;;;3.60;0.30;;;2.70;99.10;;;;;;4905890;29;19923;-82
2020/12/25 06:19:20;;;;;;;10.90;0.43;;;2.70;99.00;;;;;;4860702;29;20040;-82
2020/12/25 06:21:55;;;;;;;3.83;0.55;;;2.70;99.10;;;;;;4900637;29;20039;-81
2020/12/25 06:24:26;;;;;;;7.33;0.97;;;2.70;99.10;;;;;;4891827;29;20048;-82
2020/12/25 06:26:54;;;;;;;4.23;0.50;;;2.70;99.10;;;;;;4893488;29;20078;-81
2020/12/25 06:29:20;;;;;;;5.17;0.40;;;2.70;99.00;;;;;;4872279;29;20040;-82
2020/12/25 06:31:50;;;;;;;4.33;0.40;;;2.60;99.00;;;;;;4855166;29;20044;-82
2020/12/25 06:34:19;;;;;;;2.03;0.30;;;2.60;99.00;;;;;;4873352;29;20040;-81
2020/12/25 06:36:47;;;;;;;6.60;0.30;;;2.60;99.00;;;;;;4872118;29;20048;-82
2020/12/25 06:39:15;;;;;;;3.77;0.40;;;2.60;99.10;;;;;;4871807;29;20041;-82
2020/12/25 06:41:42;;;;;;;4.80;0.40;;;2.70;99.40;;;;;;4892237;29;20037;-82
2020/12/25 06:44:12;;;;;;;4.93;0.57;;;2.70;99.20;;;;;;4859760;29;20048;-82
2020/12/25 06:46:50;;;;;;;7.83;0.50;;;2.70;99.30;;;;;;4898123;29;20048;-82
2020/12/25 06:49:20;;;;;;;5.60;0.40;;;2.80;99.30;;;;;;4897753;29;20040;-82
2020/12/25 06:51:47;;;;;;;5.73;0.53;;;2.90;99.30;;;;;;4898017;29;20052;-82
2020/12/25 06:54:18;;;;;;;2.93;0.30;;;2.90;99.20;;;;;;4852910;29;20044;-82
2020/12/25 06:56:47;;;;;;;5.87;0.70;;;3.00;99.30;;;;;;4891109;29;20048;-81
2020/12/25 06:59:19;;;;;;;8.37;1.53;;;3.00;99.20;;;;;;4865402;29;20044;-81
2020/12/25 07:01:47;;;;;;;5.70;0.30;;;3.10;99.20;;;;;;4863791;29;20040;-83
2020/12/25 07:04:27;;;;;;;5.60;0.40;;;3.10;99.10;;;;;;4864870;29;20040;-83
2020/12/25 07:07:18;;;;;;;5.57;0.40;;;3.10;99.10;;;;;;4876608;29;20041;-84
2020/12/25 07:09:47;;;;;;;5.00;0.30;;;3.10;99.30;;;;;;4902035;29;20056;-82
2020/12/25 07:12:18;;;;;;;6.87;0.60;;;3.10;99.00;;;;;;4891835;29;20060;-82
2020/12/25 07:14:44;;;;;;;10.53;4.73;;;3.10;98.90;;;;;;4907487;29;20048;-81
2020/12/25 07:17:11;;;;;;;6.87;1.97;;;3.00;98.90;;;;;;4904110;29;20793;-81
2020/12/25 07:19:39;;;;;;;10.33;1.57;;;2.90;98.80;;;;;;4889319;29;20043;-81
2020/12/25 07:22:07;;;;;;;4.13;0.50;;;2.80;98.80;;;;;;4889824;29;20032;-81
2020/12/25 07:24:40;;;;;;;6.03;0.50;;;2.80;98.90;;;;;;4908442;29;20824;-80
2020/12/25 07:27:08;;;;;;;8.87;0.60;;;2.70;99.00;;;;;;4910133;29;20052;-81
2020/12/25 07:29:45;;;;;;;4.40;0.40;;;2.70;99.10;;;;;;5070313;28;20759;-81
2020/12/25 07:32:12;;;;;;;7.97;0.50;;;2.70;99.10;;;;;;5065748;28;20056;-82
2020/12/25 07:34:39;;;;;;;6.90;0.50;;;2.80;99.10;;;;;;5055792;28;20029;-81
2020/12/25 07:37:10;;;;;;;5.27;0.40;;;2.80;99.10;;;;;;5068828;28;20052;-81
2020/12/25 07:39:37;;;;;;;4.50;0.50;;;2.80;99.10;;;;;;5056637;28;20045;-81
2020/12/25 07:42:05;;;;;;;4.77;0.47;;;2.80;99.00;;;;;;5067503;28;20379;-81
2020/12/25 07:44:32;;;;;;;4.53;0.50;;;2.80;98.90;;;;;;5036188;28;20492;-81
2020/12/25 07:46:58;;;;;;;8.57;0.60;;;2.70;98.90;;;;;;5049143;28;20056;-81
2020/12/25 07:49:28;;;;;;;6.43;0.80;;;2.70;98.90;;;;;;5071392;28;20044;-81
2020/12/25 07:51:55;;;;;;;4.67;0.50;;;2.60;98.90;;;;;;5053553;28;20035;-81
2020/12/25 07:54:22;;;;;;;4.37;0.50;;;2.60;99.00;;;;;;5065926;28;20056;-81
2020/12/25 07:56:49;;;;;;;4.53;0.40;;;2.50;99.00;;;;;;5067893;28;20041;-81
2020/12/25 07:59:15;;;;;;;8.00;0.60;;;2.50;99.00;;;;;;5070349;28;20044;-81
2020/12/25 08:01:42;;;;;;;5.00;0.47;;;2.50;99.10;;;;;;5065867;28;20040;-81
2020/12/25 08:04:08;;;;;;;4.97;0.50;;;2.50;99.10;;;;;;5066212;28;20057;-81
2020/12/25 08:06:36;;;;;;;5.50;0.73;;;2.50;99.00;;;;;;5033484;28;20487;-81
2020/12/25 08:09:08;;;;;;;5.53;0.53;;;2.50;98.90;;;;;;5065262;28;20487;-81
2020/12/25 08:11:36;;;;;;;6.93;0.93;;;2.50;99.00;;;;;;5070230;28;20483;-81
2020/12/25 08:14:06;;;;;;;7.47;0.30;;;2.40;99.00;;;;;;5071433;28;20025;-81
2020/12/25 08:16:36;;;;;;;1.80;0.33;;;2.40;99.00;;;;;;5066582;28;20043;-81
2020/12/25 08:19:04;;;;;;;3.23;0.50;;;2.40;99.00;;;;;;5066028;28;20044;-81
2020/12/25 08:21:32;;;;;;;11.37;0.60;;;2.40;99.10;;;;;;5064700;28;20379;-80
2020/12/25 08:24:04;;;;;;;6.40;0.40;;;2.40;99.10;;;;;;5054882;28;20032;-81
2020/12/25 08:26:33;;;;;;;7.60;0.70;;;2.50;99.20;;;;;;5065644;28;20037;-81
2020/12/25 08:28:59;;;;;;;3.73;0.50;;;2.50;99.10;;;;;;5067892;28;20131;-81
2020/12/25 08:31:34;;;;;;;4.87;0.43;;;2.50;99.10;;;;;;5048854;28;20687;-81
2020/12/25 08:34:02;;;;;;;5.03;0.40;;;2.50;99.10;;;;;;5069764;28;20033;-81
2020/12/25 08:36:28;;;;;;;4.47;0.40;;;2.60;99.20;;;;;;5065431;28;20491;-82
2020/12/25 08:38:55;;;;;;;9.27;1.27;;;2.60;99.30;;;;;;5064996;28;20048;-81
2020/12/25 08:41:28;;;;;;;12.73;1.33;;;2.80;99.30;;;;;;5050440;28;20036;-82
2020/12/25 08:44:11;;;;;;;7.23;0.50;;;2.80;99.20;;;;;;5038152;28;20043;-81
2020/12/25 08:46:38;;;;;;;;;;;2.90;99.20;;;;;;5036014;28;20400;-80
2020/12/25 08:49:05;;;;;;;4.30;0.40;;;2.90;99.10;;;;;;5051449;28;19923;-81
2020/12/25 08:51:35;;;;;;;8.93;0.93;;;3.00;99.20;;;;;;5020350;28;20472;-81
2020/12/25 08:54:02;;;;;;;7.70;0.50;;;3.00;99.20;;;;;;5052905;28;20037;-81
2020/12/25 08:56:28;;;;;;;9.27;0.50;;;3.10;99.10;;;;;;5051501;28;20041;-81
2020/12/25 08:58:59;;;;;;;2.97;0.40;;;3.10;99.10;;;;;;5050874;28;20037;-81
2020/12/25 09:01:27;;;;;;;9.43;1.00;;;3.10;99.10;;;;;;5049715;28;20068;-81
2020/12/25 09:03:54;;;;;;;8.97;0.53;;;3.20;99.40;;;;;;5050564;28;20068;-81
2020/12/25 09:06:20;;;;;;;5.73;0.50;;;3.20;99.10;;;;;;5054870;28;20040;-81
2020/12/25 09:08:47;;;;;;;5.33;0.50;;;3.20;99.10;;;;;;5052045;28;20041;-81
2020/12/25 09:11:15;;;;;;;6.93;0.50;;;3.30;99.10;;;;;;5054056;28;20049;-81
2020/12/25 09:13:43;;;;;;;8.67;0.80;;;3.40;99.20;;;;;;5038061;28;20037;-76
2020/12/25 09:16:10;;;;;;;7.83;0.73;;;3.50;99.20;;;;;;5038598;28;20045;-77
2020/12/25 09:18:37;;;;;;;6.53;0.40;;;3.50;99.10;;;;;;5035713;28;20057;-77
2020/12/25 09:21:07;;;;;;;8.43;0.90;;;3.60;99.10;;;;;;5038385;28;20040;-77
2020/12/25 09:23:34;;;;;;;6.43;0.50;;;3.60;99.10;;;;;;5041930;28;20773;-77
2020/12/25 09:26:00;;;;;;;4.80;0.60;;;3.70;99.10;;;;;;5057018;28;20075;-76
2020/12/25 09:28:27;;;;;;;5.83;0.40;;;3.70;99.10;;;;;;5052942;28;20052;-77
2020/12/25 09:30:57;;;;;;;7.40;0.50;;;3.70;99.00;;;;;;5022898;28;20041;-77
2020/12/25 09:33:24;;;;;;;7.50;0.60;;;3.80;99.00;;;;;;5034380;28;20104;-77
2020/12/25 09:35:51;;;;;;;8.87;0.73;;;3.80;99.00;;;;;;5052244;28;20069;-77
2020/12/25 09:38:18;;;;;;;10.10;0.60;;;3.90;99.00;;;;;;5053652;28;20037;-77
2020/12/25 09:40:47;;;;;;;8.73;0.60;;;3.90;99.10;;;;;;5054211;28;20047;-77
2020/12/25 09:43:14;;;;;;;10.03;0.70;;;4.00;99.10;;;;;;5056597;28;20602;-77
2020/12/25 09:45:41;;;;;;;14.18;1.13;;;4.10;99.10;;;;;;5023992;28;20037;-77
2020/12/25 09:48:07;;;;;;;9.80;0.80;;;4.10;99.00;;;;;;5053094;28;20044;-77
2020/12/25 09:50:34;;;;;;;4.63;0.70;;;4.30;99.30;;;;;;5013783;28;20048;-77
2020/12/25 09:53:01;;;;;;;10.90;0.90;;;4.50;99.50;;;;;;5042219;28;20043;-77
2020/12/25 09:55:27;;;;;;;7.05;0.70;;;4.70;99.50;;;;;;5054544;28;20048;-77
2020/12/25 09:57:54;;;;;;;9.00;0.80;;;4.80;99.10;;;;;;5040976;28;20709;-76
2020/12/25 10:00:21;;;;;;;7.72;0.80;;;4.80;98.90;;;;;;5040107;28;20075;-77
2020/12/25 10:02:48;;;;;;;5.85;0.50;;;4.70;98.80;;;;;;5021259;28;20037;-77
2020/12/25 10:05:15;;;;;;;9.50;0.70;;;4.60;98.70;;;;;;5054744;28;20488;-76
2020/12/25 10:07:41;;;;;;;9.93;0.90;;;4.60;98.70;;;;;;5054602;28;20044;-77
2020/12/25 10:10:08;;;;;;;183.07;5.90;;;4.70;98.90;;;;;;5038078;28;20064;-77
2020/12/25 10:12:35;;;;;;;48.30;2.08;;;4.90;99.80;;;;;;5037877;28;20668;-77
2020/12/25 10:15:03;;;;;;;233.57;6.18;;;5.20;99.90;;;;;;5057190;28;20044;-77
2020/12/25 10:17:30;;;;;;;6.80;0.73;;;5.60;99.90;;;;;;5051410;28;20048;-77
2020/12/25 10:19:56;;;;;;;6.22;0.75;;;5.90;99.70;;;;;;5037209;28;20107;-81
2020/12/25 10:22:23;;;;;;;6.80;0.60;;;6.00;99.30;;;;;;5033636;28;20060;-82
2020/12/25 10:24:49;;;;;;;4.05;0.57;;;5.90;98.90;;;;;;5040269;28;20484;-84
2020/12/25 10:27:16;;;;;;;5.90;0.70;;;5.80;98.50;;;;;;5033903;28;20043;-81
2020/12/25 10:29:42;;;;;;;9.88;0.80;;;5.60;98.20;;;;;;5050372;28;20045;-84
2020/12/25 10:32:09;;;;;;;3.85;0.57;;;5.50;98.20;;;;;;5016723;28;20037;-83
2020/12/25 10:34:35;;;;;;;39.63;21.48;;;5.40;98.30;;;;;;5035062;28;20044;-83
2020/12/25 10:37:02;;;;;;;21.65;10.70;;;5.40;98.20;;;;;;5035210;28;20044;-83
2020/12/25 10:39:28;;;;;;;14.73;5.97;;;5.30;98.30;;;;;;5002228;28;20037;-83
2020/12/25 10:41:55;;;;;;;6.07;2.63;;;5.40;98.40;;;;;;5033249;28;20047;-84
2020/12/25 10:44:22;;;;;;;3.30;0.63;;;5.40;98.30;;;;;;5037772;28;20041;-84
2020/12/25 10:46:48;;;;;;;4.10;0.43;;;5.30;98.10;;;;;;5053755;28;20068;-82
2020/12/25 10:49:14;;;;;;;4.53;0.70;;;5.20;97.80;;;;;;5052842;28;20040;-83
2020/12/25 10:51:45;;;;;;;6.35;1.25;;;5.00;97.80;;;;;;5047898;28;20049;-83
2020/12/25 10:54:13;;;;;;;4.90;0.88;;;4.90;98.20;;;;;;5034619;28;20391;-84
2020/12/25 10:56:40;;;;;;;1.13;0.20;;;4.90;98.00;;;;;;5048990;28;20053;-83
2020/12/25 10:59:06;;;;;;;3.67;0.30;;;4.80;98.00;;;;;;5049763;28;20522;-83
2020/12/25 11:01:33;;;;;;;2.88;0.30;;;4.80;98.00;;;;;;5033251;28;20066;-82
2020/12/25 11:04:00;;;;;;;1.50;0.20;;;4.80;98.00;;;;;;5051436;28;20037;-82
2020/12/25 11:06:31;;;;;;;1.42;0.30;;;4.70;97.90;;;;;;5051980;28;20033;-82
2020/12/25 11:08:58;;;;;;;1.70;0.20;;;4.70;97.90;;;;;;5049144;28;20057;-82
2020/12/25 11:11:25;;;;;;;2.92;0.30;;;4.70;97.80;;;;;;5046191;28;20399;-82
2020/12/25 11:13:52;;;;;;;5.32;0.35;;;4.70;97.60;;;;;;5048657;28;20400;-82
2020/12/25 11:16:25;;;;;;;2.60;0.40;;;4.70;97.60;;;;;;5016634;28;20048;-82
2020/12/25 11:18:53;;;;;;;4.40;0.20;;;4.70;97.50;;;;;;5030376;28;20483;-81
2020/12/25 11:21:21;;;;;;;2.22;0.20;;;4.70;97.50;;;;;;5045555;28;20047;-82
2020/12/25 11:23:50;;;;;;;2.10;0.20;;;4.70;97.50;;;;;;5047547;28;20055;-83
2020/12/25 11:26:25;;;;;;;4.57;0.30;;;4.80;97.50;;;;;;5015133;28;20048;-82
2020/12/25 11:28:54;;;;;;;3.47;0.20;;;4.70;97.30;;;;;;5045463;28;20057;-75
2020/12/25 11:31:22;;;;;;;6.32;0.30;;;4.70;97.30;;;;;;5030581;28;20029;-76
2020/12/25 11:33:49;;;;;;;2.92;0.30;;;4.80;97.20;;;;;;5015749;28;20116;-83
2020/12/25 11:36:21;;;;;;;1.65;0.20;;;4.80;97.20;;;;;;5046475;28;20049;-83
2020/12/25 11:38:48;;;;;;;2.38;0.22;;;4.80;97.00;;;;;;5045764;28;20053;-82
2020/12/25 11:41:16;;;;;;;6.30;0.40;;;4.80;96.90;;;;;;5019135;28;20048;-82
2020/12/25 11:43:44;;;;;;;6.28;0.40;;;4.90;96.90;;;;;;5047233;28;20052;-82
2020/12/25 11:46:10;;;;;;;5.43;0.40;;;4.90;96.90;;;;;;5033370;28;20045;-82
2020/12/25 11:48:37;;;;;;;3.00;0.35;;;5.00;97.10;;;;;;5031168;28;20044;-83
2020/12/25 11:51:05;;;;;;;3.08;0.40;;;5.10;96.90;;;;;;5033056;28;20045;-83
2020/12/25 11:53:32;;;;;;;4.75;0.32;;;5.20;96.90;;;;;;5048136;28;20472;-82
2020/12/25 11:55:58;;;;;;;3.35;0.40;;;5.20;96.70;;;;;;5012563;28;20052;-82
2020/12/25 11:58:25;;;;;;;5.53;0.32;;;5.20;96.50;;;;;;5028616;28;20053;-83
2020/12/25 12:00:51;;;;;;;4.90;0.35;;;5.20;96.40;;;;;;5013340;28;20060;-82
2020/12/25 12:03:18;;;;;;;7.05;0.40;;;5.10;96.20;;;;;;5018253;28;20036;-82
2020/12/25 12:05:44;;;;;;;6.55;0.70;;;5.10;96.20;;;;;;5031464;28;20044;-83
2020/12/25 12:08:11;;;;;;;5.40;0.40;;;5.10;96.30;;;;;;5045419;28;20045;-83
2020/12/25 12:10:39;;;;;;;4.43;0.40;;;5.10;96.30;;;;;;5051183;28;20108;-82
2020/12/25 12:13:06;;;;;;;4.65;0.63;;;5.10;96.40;;;;;;5030767;28;20048;-82
2020/12/25 12:15:37;;;;;;;6.28;0.50;;;5.10;96.40;;;;;;5052594;28;20047;-83
2020/12/25 12:18:05;;;;;;;3.38;0.50;;;5.10;96.40;;;;;;5050264;28;20037;-83
2020/12/25 12:20:33;;;;;;;5.57;0.90;;;5.10;96.40;;;;;;5037184;28;20032;-82
2020/12/25 12:23:00;;;;;;;7.30;0.40;;;5.20;96.40;;;;;;5022949;28;20057;-81
2020/12/25 12:25:27;;;;;;;2.45;0.50;;;5.20;96.50;;;;;;5050117;28;20033;-82
2020/12/25 12:27:55;;;;;;;8.18;1.00;;;5.30;96.50;;;;;;5047350;28;20040;-83
2020/12/25 12:30:21;;;;;;;5.18;0.55;;;5.40;96.50;;;;;;5053442;28;20036;-83
2020/12/25 12:32:48;;;;;;;3.20;0.80;;;5.50;96.40;;;;;;5053582;28;20039;-83
2020/12/25 12:35:15;;;;;;;8.65;0.47;;;5.50;96.10;;;;;;5052533;28;20040;-83
2020/12/25 12:37:44;;;;;;;5.90;0.50;;;5.70;96.40;;;;;;5032398;28;20036;-83
2020/12/25 12:40:12;;;;;;;4.63;0.75;;;5.80;96.20;;;;;;5035050;28;20040;-83
2020/12/25 12:42:39;;;;;;;7.68;0.50;;;5.80;96.20;;;;;;5047926;28;20037;-83
2020/12/25 12:45:06;;;;;;;6.22;0.55;;;5.80;96.10;;;;;;5051545;28;20037;-83
2020/12/25 12:47:33;;;;;;;3.13;0.40;;;5.90;96.00;;;;;;5050459;28;20055;-83
2020/12/25 12:49:59;;;;;;;5.57;0.40;;;6.00;96.00;;;;;;5031723;28;20415;-83
2020/12/25 12:52:26;;;;;;;2.93;0.30;;;6.00;96.00;;;;;;5051575;28;20044;-82
2020/12/25 12:54:52;;;;;;;4.45;0.45;;;6.10;95.80;;;;;;5054200;28;20789;-82
2020/12/25 12:57:19;;;;;;;3.78;0.52;;;6.30;95.50;;;;;;4985478;28;20059;-82
2020/12/25 12:59:45;;;;;;;4.57;0.68;;;6.30;95.60;;;;;;5048832;28;20048;-83